Terminal Aerodrome Forecast
Issued by NWS

Home | Current Version | Previous Version | Text Only | Print | Product List | Glossary On
Versions: 1 2 3 4 5 6 7 8 9 10 11 12 13 14 15 16 17 18 19 20 21 22 23 24 25
000
FTUS41 KPBZ 052320
TAFZZV
TAF
KZZV 052320Z 0600/0624 35004KT P6SM BKN250
     FM060600 00000KT 4SM BR SCT060 BKN150
      TEMPO 0609/0613 2SM BR
     FM061600 VRB04KT 6SM BR VCSH BKN040=

USA.gov is the U.S. government's official web portal to all federal, state and local government web resources and services.